createdAt,value
2018-09-24T00:00:10.664Z,67.193604
2018-09-24T00:01:10.577Z,66.992188
2018-09-24T00:02:10.712Z,66.491699
2018-09-24T00:03:10.733Z,66.290283
2018-09-24T00:04:10.843Z,66.290283
2018-09-24T00:05:10.959Z,67.297363
2018-09-24T00:06:11.071Z,67.230225
2018-09-24T00:07:11.084Z,67.730713
2018-09-24T00:08:11.161Z,67.730713
2018-09-24T00:09:11.280Z,67.462158
2018-09-24T00:10:11.405Z,67.059326
2018-09-24T00:11:11.560Z,67.559814
2018-09-24T00:12:11.588Z,68.469238
2018-09-24T00:13:11.663Z,68.572998
2018-09-24T00:14:11.776Z,68.371582
2018-09-24T00:15:11.920Z,68.237305
2018-09-24T00:16:11.876Z,68.371582
2018-09-24T00:17:12.013Z,68.267822
2018-09-24T00:18:12.110Z,68.804932
2018-09-24T00:19:12.239Z,68.774414
2018-09-24T00:20:12.390Z,68.170166
2018-09-24T00:21:12.409Z,67.663574
2018-09-24T00:22:12.484Z,68.170166
2018-09-24T00:23:12.538Z,68.87207
2018-09-24T00:24:12.589Z,68.267822
2018-09-24T00:25:12.737Z,69.006348
2018-09-24T00:26:12.807Z,68.804932
2018-09-24T00:27:12.822Z,68.804932
2018-09-24T00:28:12.872Z,68.096924
2018-09-24T00:29:12.960Z,68.804932
2018-09-24T00:30:13.032Z,69.110107
2018-09-24T00:31:12.997Z,68.87207
2018-09-24T00:32:13.139Z,68.267822
2018-09-24T00:33:13.274Z,68.87207
2018-09-24T00:34:13.363Z,68.97583
2018-09-24T00:35:13.497Z,69.207764
2018-09-24T00:36:13.681Z,69.415283
2018-09-24T00:37:13.762Z,69.311523
2018-09-24T00:38:13.967Z,69.915771
2018-09-24T00:39:13.902Z,69.311523
2018-09-24T00:40:13.991Z,69.311523
2018-09-24T00:41:14.153Z,69.512939
2018-09-24T00:42:14.177Z,70.019531
2018-09-24T00:43:14.221Z,69.750977
2018-09-24T00:44:14.215Z,70.489502
2018-09-24T00:45:14.415Z,69.378662
2018-09-24T00:46:15.369Z,69.445801
2018-09-24T00:47:14.456Z,69.580078
2018-09-24T00:48:14.586Z,69.244385
2018-09-24T00:49:14.785Z,68.841553
2018-09-24T00:50:14.825Z,68.634033
2018-09-24T00:51:14.945Z,68.737793
2018-09-24T00:52:15.015Z,68.133545
2018-09-24T00:53:15.153Z,68.133545
2018-09-24T00:54:15.257Z,68.029785
2018-09-24T00:55:15.307Z,67.932129
2018-09-24T00:56:15.489Z,67.321777
2018-09-24T00:57:15.491Z,67.962646
2018-09-24T00:58:15.517Z,68.164062
2018-09-24T00:59:15.567Z,67.724609
2018-09-24T01:00:15.598Z,67.224121
2018-09-24T01:01:15.743Z,67.016602
2018-09-24T01:02:15.816Z,67.254639
2018-09-24T01:03:15.874Z,67.321777
2018-09-24T01:04:15.981Z,66.040039
2018-09-24T01:05:16.096Z,66.949463
2018-09-24T01:06:16.329Z,66.949463
2018-09-24T01:07:16.217Z,67.053223
2018-09-24T01:08:16.334Z,66.918945
2018-09-24T01:09:16.435Z,67.150879
2018-09-24T01:10:16.572Z,67.456055
2018-09-24T01:11:16.594Z,67.590332
2018-09-24T01:12:16.737Z,67.889404
2018-09-24T01:13:16.875Z,67.486572
2018-09-24T01:14:17.035Z,67.08374
2018-09-24T01:15:17.048Z,67.053223
2018-09-24T01:16:17.146Z,66.949463
2018-09-24T01:17:17.249Z,66.577148
2018-09-24T01:18:17.451Z,67.181396
2018-09-24T01:19:17.436Z,66.674805
2018-09-24T01:20:17.541Z,66.97998
2018-09-24T01:21:17.627Z,66.473389
2018-09-24T01:22:17.845Z,66.97998
2018-09-24T01:23:17.891Z,67.926025
2018-09-24T01:24:18.022Z,67.926025
2018-09-24T01:25:18.125Z,67.590332
2018-09-24T01:26:18.288Z,66.345215
2018-09-24T01:27:18.359Z,66.442871
2018-09-24T01:28:18.454Z,65.936279
2018-09-24T01:29:18.534Z,66.778564
2018-09-24T01:30:18.614Z,66.711426
2018-09-24T01:31:18.709Z,66.943359
2018-09-24T01:32:18.697Z,66.741943
2018-09-24T01:33:18.916Z,66.8396
2018-09-24T01:34:18.865Z,66.741943
2018-09-24T01:35:18.934Z,66.973877
2018-09-24T01:36:18.969Z,67.41333
2018-09-24T01:37:19.236Z,67.382812
2018-09-24T01:38:19.224Z,66.772461
2018-09-24T01:39:19.296Z,66.467285
2018-09-24T01:40:19.399Z,67.004395
2018-09-24T01:41:20.512Z,65.960693
2018-09-24T01:42:19.597Z,65.759277
2018-09-24T01:43:19.632Z,65.759277
2018-09-24T01:44:19.651Z,65.252686
2018-09-24T01:45:19.762Z,65.557861
2018-09-24T01:46:19.836Z,65.759277
2018-09-24T01:47:19.858Z,64.611816
2018-09-24T01:48:19.907Z,64.916992
2018-09-24T01:49:20.014Z,62.890625
2018-09-24T01:50:20.056Z,63.427734
2018-09-24T01:51:20.157Z,63.964844
2018-09-24T01:52:20.308Z,64.135742
2018-09-24T01:53:20.234Z,62.890625
2018-09-24T01:54:20.332Z,63.73291
2018-09-24T01:55:20.443Z,64.367676
2018-09-24T01:56:20.528Z,64.471436
2018-09-24T01:57:20.650Z,64.038086
2018-09-24T01:58:20.778Z,63.62915
2018-09-24T01:59:20.912Z,63.323975
2018-09-24T02:00:21.100Z,63.226318
2018-09-24T02:01:21.041Z,64.135742
2018-09-24T02:02:21.121Z,63.702393
2018-09-24T02:03:21.240Z,62.994385
2018-09-24T02:04:21.339Z,62.792969
2018-09-24T02:05:21.384Z,62.689209
2018-09-24T02:06:21.402Z,62.792969
2018-09-24T02:07:21.500Z,63.500977
2018-09-24T02:08:21.529Z,63.195801
2018-09-24T02:09:21.587Z,62.054443
2018-09-24T02:10:21.716Z,62.182617
2018-09-24T02:11:21.808Z,62.615967
2018-09-24T02:12:21.919Z,62.615967
2018-09-24T02:13:22.079Z,62.182617
2018-09-24T02:14:22.197Z,63.299561
2018-09-24T02:15:22.348Z,63.195801
2018-09-24T02:16:22.445Z,62.414551
2018-09-24T02:17:22.545Z,62.817383
2018-09-24T02:18:22.501Z,63.323975
2018-09-24T02:19:22.610Z,63.427734
2018-09-24T02:20:22.690Z,64.642334
2018-09-24T02:21:22.734Z,64.611816
2018-09-24T02:22:22.831Z,64.544678
2018-09-24T02:23:22.944Z,64.746094
2018-09-24T02:24:23.074Z,64.916992
2018-09-24T02:25:23.182Z,64.94751
2018-09-24T02:26:23.157Z,64.94751
2018-09-24T02:27:23.269Z,64.440918
2018-09-24T02:28:23.449Z,64.27002
2018-09-24T02:29:23.511Z,65.081787
2018-09-24T02:30:23.676Z,64.239502
2018-09-24T02:31:23.732Z,63.62915
2018-09-24T02:32:23.927Z,63.830566
2018-09-24T02:33:23.838Z,63.934326
2018-09-24T02:34:24.013Z,63.598633
2018-09-24T02:35:24.067Z,63.195801
2018-09-24T02:36:24.192Z,62.487793
2018-09-24T02:37:24.339Z,62.585449
2018-09-24T02:38:24.405Z,62.719727
2018-09-24T02:39:24.487Z,62.921143
2018-09-24T02:40:24.654Z,62.414551
2018-09-24T02:41:24.574Z,62.518311
2018-09-24T02:42:24.608Z,62.518311
2018-09-24T02:43:24.787Z,62.310791
2018-09-24T02:44:24.860Z,62.518311
2018-09-24T02:45:24.998Z,62.719727
2018-09-24T02:46:24.998Z,61.907959
2018-09-24T02:47:25.106Z,61.578369
2018-09-24T02:48:25.035Z,61.676025
2018-09-24T02:49:25.069Z,61.877441
2018-09-24T02:50:25.122Z,61.578369
2018-09-24T02:51:25.223Z,61.505127
2018-09-24T02:52:25.229Z,61.199951
2018-09-24T02:53:25.310Z,61.199951
2018-09-24T02:54:25.424Z,60.894775
2018-09-24T02:55:25.423Z,60.766602
2018-09-24T02:56:25.561Z,61.907959
2018-09-24T02:57:25.560Z,61.907959
2018-09-24T02:58:25.639Z,61.297607
2018-09-24T02:59:25.754Z,60.791016
2018-09-24T03:00:25.865Z,61.096191
2018-09-24T03:01:26.056Z,61.096191
2018-09-24T03:02:26.219Z,61.633301
2018-09-24T03:03:26.043Z,62.036133
2018-09-24T03:04:26.171Z,61.907959
2018-09-24T03:05:26.288Z,62.414551
2018-09-24T03:06:26.395Z,62.109375
2018-09-24T03:07:26.425Z,62.646484
2018-09-24T03:08:26.489Z,62.95166
2018-09-24T03:09:26.599Z,62.646484
2018-09-24T03:10:26.695Z,62.542725
2018-09-24T03:11:26.782Z,62.878418
2018-09-24T03:12:26.965Z,62.878418
2018-09-24T03:13:26.918Z,63.793945
2018-09-24T03:14:27.023Z,63.763428
2018-09-24T03:15:27.128Z,63.153076
2018-09-24T03:16:27.239Z,62.780762
2018-09-24T03:17:27.309Z,62.878418
2018-09-24T03:18:27.282Z,62.780762
2018-09-24T03:19:27.297Z,63.586426
2018-09-24T03:20:27.378Z,63.824463
2018-09-24T03:21:27.460Z,63.214111
2018-09-24T03:22:27.541Z,62.402344
2018-09-24T03:23:27.571Z,62.371826
2018-09-24T03:24:27.686Z,61.968994
2018-09-24T03:25:27.769Z,62.268066
2018-09-24T03:26:28.028Z,62.371826
2018-09-24T03:27:28.000Z,62.475586
2018-09-24T03:28:28.011Z,62.573242
2018-09-24T03:29:28.159Z,61.938477
2018-09-24T03:30:28.375Z,62.341309
2018-09-24T03:31:28.344Z,62.341309
2018-09-24T03:32:28.480Z,61.737061
2018-09-24T03:33:28.433Z,62.139893
2018-09-24T03:34:28.689Z,61.633301
2018-09-24T03:35:28.619Z,61.968994
2018-09-24T03:36:28.735Z,62.036133
2018-09-24T03:37:28.795Z,62.371826
2018-09-24T03:38:28.921Z,62.982178
2018-09-24T03:39:28.927Z,62.780762
2018-09-24T03:40:29.008Z,62.268066
2018-09-24T03:41:29.090Z,62.17041
2018-09-24T03:42:29.072Z,62.445068
2018-09-24T03:43:29.078Z,61.865234
2018-09-24T03:44:29.159Z,61.663818
2018-09-24T03:45:29.161Z,61.938477
2018-09-24T03:46:29.256Z,61.633301
2018-09-24T03:47:29.309Z,61.328125
2018-09-24T03:48:29.499Z,62.036133
2018-09-24T03:49:29.491Z,62.036133
2018-09-24T03:50:29.560Z,62.268066
2018-09-24T03:51:29.546Z,62.243652
2018-09-24T03:52:29.745Z,62.475586
2018-09-24T03:53:29.712Z,62.445068
2018-09-24T03:54:29.696Z,62.243652
2018-09-24T03:55:29.829Z,62.139893
2018-09-24T03:56:29.935Z,61.993408
2018-09-24T03:57:30.096Z,61.968994
2018-09-24T03:58:30.151Z,61.895752
2018-09-24T03:59:30.279Z,62.573242
2018-09-24T04:00:30.377Z,62.982178
2018-09-24T04:01:30.450Z,62.677002
2018-09-24T04:02:30.481Z,62.677002
2018-09-24T04:03:30.604Z,62.06665
2018-09-24T04:04:30.671Z,62.268066
2018-09-24T04:05:30.854Z,61.968994
2018-09-24T04:06:30.858Z,61.328125
2018-09-24T04:07:30.964Z,60.723877
2018-09-24T04:08:31.086Z,61.328125
2018-09-24T04:09:31.211Z,61.328125
2018-09-24T04:10:31.172Z,61.328125
2018-09-24T04:11:31.300Z,60.949707
2018-09-24T04:12:31.426Z,60.852051
2018-09-24T04:13:31.554Z,61.083984
2018-09-24T04:14:31.648Z,60.040283
2018-09-24T04:15:31.747Z,60.040283
2018-09-24T04:16:31.845Z,59.838867
2018-09-24T04:17:31.888Z,59.356689
2018-09-24T04:18:31.927Z,59.051514
2018-09-24T04:19:32.023Z,59.661865
2018-09-24T04:20:32.089Z,59.558105
2018-09-24T04:21:32.102Z,59.356689
2018-09-24T04:22:32.217Z,59.259033
2018-09-24T04:23:32.344Z,59.356689
2018-09-24T04:24:32.505Z,58.92334
2018-09-24T04:25:32.515Z,59.460449
2018-09-24T04:26:32.566Z,59.332275
2018-09-24T04:27:32.587Z,59.155273
2018-09-24T04:28:32.721Z,59.082031
2018-09-24T04:29:32.847Z,59.259033
2018-09-24T04:30:33.005Z,59.283447
2018-09-24T04:31:32.949Z,59.051514
2018-09-24T04:32:33.061Z,58.953857
2018-09-24T04:33:33.152Z,58.03833
2018-09-24T04:34:33.291Z,57.93457
2018-09-24T04:35:33.381Z,58.673096
2018-09-24T04:36:33.492Z,58.905029
2018-09-24T04:37:33.631Z,59.106445
2018-09-24T04:38:33.721Z,58.776855
2018-09-24T04:39:33.863Z,58.294678
2018-09-24T04:40:34.010Z,59.008789
2018-09-24T04:41:33.941Z,58.905029
2018-09-24T04:42:34.012Z,58.80127
2018-09-24T04:43:34.230Z,59.387207
2018-09-24T04:44:34.315Z,59.283447
2018-09-24T04:45:34.366Z,59.313965
2018-09-24T04:46:34.397Z,59.588623
2018-09-24T04:47:34.597Z,59.082031
2018-09-24T04:48:34.565Z,58.880615
2018-09-24T04:49:34.618Z,59.179688
2018-09-24T04:50:34.706Z,59.082031
2018-09-24T04:51:34.812Z,59.387207
2018-09-24T04:52:34.889Z,59.082031
2018-09-24T04:53:34.886Z,59.387207
2018-09-24T04:54:35.001Z,58.978271
2018-09-24T04:55:35.378Z,60.021973
2018-09-24T04:56:35.185Z,60.528564
2018-09-24T04:57:35.232Z,59.790039
2018-09-24T04:58:35.379Z,58.978271
2018-09-24T04:59:35.486Z,59.179688
2018-09-24T05:00:35.609Z,60.198975
2018-09-24T05:01:35.650Z,59.918213
2018-09-24T05:02:35.699Z,59.716797
2018-09-24T05:03:35.716Z,58.880615
2018-09-24T05:04:35.918Z,58.703613
2018-09-24T05:05:35.906Z,59.008789
2018-09-24T05:06:35.929Z,58.80127
2018-09-24T05:07:35.956Z,58.599854
2018-09-24T05:08:36.011Z,58.166504
2018-09-24T05:09:36.020Z,57.733154
2018-09-24T05:10:36.140Z,57.861328
2018-09-24T05:11:36.234Z,58.36792
2018-09-24T05:12:36.228Z,58.47168
2018-09-24T05:13:36.270Z,57.556152
2018-09-24T05:14:36.335Z,57.635498
2018-09-24T05:15:36.427Z,57.556152
2018-09-24T05:16:36.461Z,57.635498
2018-09-24T05:17:36.402Z,57.531738
2018-09-24T05:18:36.568Z,57.15332
2018-09-24T05:19:36.435Z,57.305908
2018-09-24T05:20:36.589Z,57.305908
2018-09-24T05:21:36.648Z,57.409668
2018-09-24T05:22:36.712Z,56.744385
2018-09-24T05:23:36.829Z,56.341553
2018-09-24T05:24:36.924Z,56.341553
2018-09-24T05:25:37.014Z,55.834961
2018-09-24T05:26:37.096Z,56.036377
2018-09-24T05:27:37.192Z,55.932617
2018-09-24T05:28:37.263Z,55.603027
2018-09-24T05:29:37.280Z,55.627441
2018-09-24T05:30:37.363Z,56.036377
2018-09-24T05:31:37.446Z,56.164551
2018-09-24T05:32:37.493Z,56.365967
2018-09-24T05:33:37.511Z,56.262207
2018-09-24T05:34:37.641Z,55.859375
2018-09-24T05:35:37.579Z,56.365967
2018-09-24T05:36:37.848Z,56.060791
2018-09-24T05:37:37.744Z,56.262207
2018-09-24T05:38:37.838Z,55.987549
2018-09-24T05:39:37.844Z,56.188965
2018-09-24T05:40:38.053Z,56.164551
2018-09-24T05:41:37.932Z,56.164551
2018-09-24T05:42:37.978Z,56.695557
2018-09-24T05:43:38.002Z,56.5979
2018-09-24T05:44:38.010Z,56.292725
2018-09-24T05:45:38.112Z,55.859375
2018-09-24T05:46:38.217Z,55.755615
2018-09-24T05:47:38.306Z,55.352783
2018-09-24T05:48:38.370Z,55.987549
2018-09-24T05:49:38.487Z,56.188965
2018-09-24T05:50:38.548Z,56.085205
2018-09-24T05:51:38.605Z,56.060791
2018-09-24T05:52:38.709Z,56.292725
2018-09-24T05:53:38.723Z,56.5979
2018-09-24T05:54:38.756Z,56.695557
2018-09-24T05:55:38.784Z,56.262207
2018-09-24T05:56:38.863Z,55.352783
2018-09-24T05:57:38.963Z,55.755615
2018-09-24T05:58:38.973Z,56.085205
2018-09-24T05:59:39.081Z,55.987549
2018-09-24T06:00:39.279Z,56.494141
2018-09-24T06:01:39.194Z,56.567383
2018-09-24T06:02:39.385Z,56.567383
2018-09-24T06:03:39.376Z,55.957031
2018-09-24T06:04:39.441Z,56.164551
2018-09-24T06:05:39.466Z,56.439209
2018-09-24T06:06:39.532Z,55.834961
2018-09-24T06:07:39.649Z,56.439209
2018-09-24T06:08:39.671Z,57.15332
2018-09-24T06:09:39.735Z,56.646729
2018-09-24T06:10:39.755Z,56.134033
2018-09-24T06:11:39.790Z,55.804443
2018-09-24T06:12:39.955Z,56.036377
2018-09-24T06:13:40.131Z,55.426025
2018-09-24T06:14:40.126Z,56.365967
2018-09-24T06:15:40.199Z,56.774902
2018-09-24T06:16:40.215Z,56.542969
2018-09-24T06:17:41.341Z,56.036377
2018-09-24T06:18:40.447Z,55.12085
2018-09-24T06:19:40.543Z,55.297852
2018-09-24T06:20:40.599Z,55.096436
2018-09-24T06:21:40.652Z,55.499268
2018-09-24T06:22:40.771Z,55.499268
2018-09-24T06:23:40.815Z,55.200195
2018-09-24T06:24:40.929Z,55.200195
2018-09-24T06:25:40.981Z,55.499268
2018-09-24T06:26:41.035Z,55.603027
2018-09-24T06:27:41.104Z,55.401611
2018-09-24T06:28:41.077Z,55.706787
2018-09-24T06:29:41.195Z,55.706787
2018-09-24T06:30:41.242Z,56.719971
2018-09-24T06:31:41.368Z,57.250977
2018-09-24T06:32:41.520Z,57.659912
2018-09-24T06:33:41.610Z,57.122803
2018-09-24T06:34:41.595Z,57.354736
2018-09-24T06:35:41.718Z,57.556152
2018-09-24T06:36:41.799Z,58.166504
2018-09-24T06:37:41.974Z,57.458496
2018-09-24T06:38:41.870Z,57.122803
2018-09-24T06:39:41.941Z,56.695557
2018-09-24T06:41:57.701Z,55.853271
2018-09-24T06:42:57.746Z,55.755615
2018-09-24T07:09:52.656Z,54.663086
2018-09-24T07:10:52.860Z,54.6875
2018-09-24T07:11:52.808Z,54.864502
2018-09-24T07:12:52.856Z,54.864502
2018-09-24T07:13:52.985Z,55.041504
2018-09-24T07:14:52.952Z,54.437256
2018-09-24T07:15:52.976Z,54.534912
2018-09-24T07:16:53.058Z,54.968262
2018-09-24T07:17:53.122Z,55.072021
2018-09-24T07:18:53.259Z,54.742432
2018-09-24T07:19:53.251Z,54.56543
2018-09-24T07:20:53.382Z,54.992676
2018-09-24T07:21:53.457Z,55.499268
2018-09-24T07:22:54.500Z,55.401611
2018-09-24T07:23:53.531Z,55.804443
2018-09-24T07:24:53.584Z,55.908203
2018-09-24T07:25:53.647Z,55.67627
2018-09-24T07:26:53.742Z,55.072021
2018-09-24T07:27:53.767Z,55.67627
2018-09-24T07:28:53.802Z,56.109619
2018-09-24T07:29:53.860Z,55.401611
2018-09-24T07:30:53.921Z,55.200195
2018-09-24T07:31:54.196Z,55.401611
2018-09-24T07:32:54.071Z,54.919434
2018-09-24T07:33:54.060Z,55.096436
2018-09-24T07:34:54.153Z,54.992676
2018-09-24T07:35:54.259Z,55.200195
2018-09-24T07:36:54.371Z,55.200195
2018-09-24T07:37:54.374Z,55.401611
2018-09-24T07:38:54.407Z,55.706787
2018-09-24T07:39:54.457Z,55.804443
2018-09-24T07:40:54.449Z,56.011963
2018-09-24T07:41:54.519Z,56.311035
2018-09-24T07:42:54.670Z,56.011963
2018-09-24T07:43:54.685Z,56.213379
2018-09-24T07:44:54.822Z,56.085205
2018-09-24T07:45:54.925Z,56.213379
2018-09-24T07:46:55.049Z,56.390381
2018-09-24T07:47:55.078Z,56.286621
2018-09-24T07:48:55.178Z,55.706787
2018-09-24T07:49:55.203Z,55.706787
2018-09-24T07:50:55.245Z,55.804443
2018-09-24T07:51:55.439Z,55.883789
2018-09-24T07:52:55.378Z,56.011963
2018-09-24T07:53:55.439Z,56.311035
2018-09-24T07:54:55.540Z,56.390381
2018-09-24T07:55:55.687Z,56.286621
2018-09-24T07:56:55.670Z,55.67627
2018-09-24T07:57:55.748Z,55.67627
2018-09-24T07:58:55.795Z,55.67627
2018-09-24T07:59:55.767Z,55.67627
2018-09-24T08:00:55.876Z,55.578613
2018-09-24T08:01:55.891Z,55.371094
2018-09-24T08:02:55.983Z,55.371094
2018-09-24T08:03:56.020Z,55.169678
2018-09-24T08:04:56.196Z,55.273438
2018-09-24T08:05:56.233Z,55.474854
2018-09-24T08:06:56.386Z,55.578613
2018-09-24T08:07:56.296Z,55.578613
2018-09-24T08:08:56.317Z,55.499268
2018-09-24T08:09:56.434Z,55.706787
2018-09-24T08:10:56.460Z,55.401611
2018-09-24T08:11:56.516Z,55.297852
2018-09-24T08:12:56.722Z,55.603027
2018-09-24T08:13:56.749Z,56.085205
2018-09-24T08:14:56.781Z,56.182861
2018-09-24T08:15:57.961Z,56.182861
2018-09-24T08:16:56.978Z,55.474854
2018-09-24T08:17:57.172Z,55.371094
2018-09-24T08:18:57.131Z,55.072021
2018-09-24T08:19:57.162Z,54.864502
2018-09-24T08:20:57.334Z,55.169678
2018-09-24T08:21:57.506Z,54.968262
2018-09-24T08:22:57.406Z,54.56543
2018-09-24T08:23:57.465Z,54.052734
2018-09-24T08:24:57.545Z,53.930664
2018-09-24T08:25:57.602Z,54.35791
2018-09-24T08:26:57.743Z,54.156494
2018-09-24T08:27:57.769Z,54.35791
2018-09-24T08:28:57.952Z,54.437256
2018-09-24T08:29:57.974Z,54.840088
2018-09-24T08:30:58.081Z,54.510498
2018-09-24T08:31:58.089Z,54.510498
2018-09-24T08:32:58.302Z,54.205322
2018-09-24T08:33:58.179Z,54.107666
2018-09-24T08:34:58.276Z,54.437256
2018-09-24T08:35:58.331Z,54.309082
2018-09-24T08:36:58.428Z,54.003906
2018-09-24T08:37:58.538Z,53.4729
2018-09-24T08:38:58.661Z,53.167725
2018-09-24T08:39:58.780Z,53.271484
2018-09-24T08:40:58.781Z,53.4729
2018-09-24T08:41:58.885Z,53.4729
2018-09-24T08:42:58.892Z,53.57666
2018-09-24T08:43:58.977Z,53.369141
2018-09-24T08:44:59.002Z,53.369141
2018-09-24T08:45:59.009Z,53.070068
2018-09-24T08:46:59.048Z,52.941895
2018-09-24T08:47:59.088Z,52.539062
2018-09-24T08:48:59.146Z,52.539062
2018-09-24T08:49:59.272Z,52.307129
2018-09-24T08:50:59.296Z,52.484131
2018-09-24T08:51:59.374Z,51.373291
2018-09-24T08:52:59.483Z,50.866699
2018-09-24T08:53:59.530Z,49.932861
2018-09-24T08:54:59.555Z,50.036621
2018-09-24T08:55:59.736Z,49.530029
2018-09-24T08:56:59.879Z,49.530029
2018-09-24T08:57:59.970Z,48.901367
2018-09-24T08:58:59.972Z,48.797607
2018-09-24T09:00:00.094Z,48.071289
2018-09-24T09:01:00.292Z,47.467041
2018-09-24T09:02:00.294Z,47.967529
2018-09-24T09:03:00.411Z,47.766113
2018-09-24T09:04:00.543Z,48.352051
2018-09-24T09:05:00.607Z,48.474121
2018-09-24T09:06:00.724Z,48.498535
2018-09-24T09:07:00.677Z,48.394775
2018-09-24T09:08:00.827Z,48.822021
2018-09-24T09:09:00.844Z,48.797607
2018-09-24T09:10:00.972Z,47.589111
2018-09-24T09:11:01.118Z,47.186279
2018-09-24T09:12:01.198Z,46.97876
2018-09-24T09:13:01.284Z,46.679688
2018-09-24T09:14:01.407Z,46.881104
2018-09-24T09:15:01.520Z,47.485352
2018-09-24T09:16:01.582Z,48.217773
2018-09-24T09:17:01.681Z,48.419189
2018-09-24T09:18:01.776Z,48.217773
2018-09-24T09:19:01.809Z,48.339844
2018-09-24T09:20:01.981Z,48.443604
2018-09-24T09:21:01.886Z,48.742676
2018-09-24T09:22:01.979Z,48.54126
2018-09-24T09:23:02.091Z,48.54126
2018-09-24T09:24:02.243Z,48.76709
2018-09-24T09:25:02.337Z,49.475098
2018-09-24T09:26:02.394Z,49.780273
2018-09-24T09:27:02.499Z,49.578857
2018-09-24T09:28:02.536Z,49.377441
2018-09-24T09:29:02.648Z,49.578857
2018-09-24T09:30:02.636Z,48.364258
2018-09-24T09:31:02.873Z,48.486328
2018-09-24T09:32:02.838Z,48.565674
2018-09-24T09:33:02.852Z,48.083496
2018-09-24T09:34:02.935Z,48.76709
2018-09-24T09:35:03.024Z,48.687744
2018-09-24T09:36:02.996Z,48.083496
2018-09-24T09:37:03.041Z,48.162842
2018-09-24T09:38:03.161Z,48.181152
2018-09-24T09:39:03.197Z,48.486328
2018-09-24T09:40:03.272Z,48.76709
2018-09-24T09:41:03.432Z,48.083496
2018-09-24T09:42:03.540Z,48.565674
2018-09-24T09:43:03.565Z,48.364258
2018-09-24T09:44:03.577Z,48.162842
2018-09-24T09:45:03.648Z,47.961426
2018-09-24T09:46:03.803Z,47.961426
2018-09-24T09:47:03.908Z,47.607422
2018-09-24T09:48:04.212Z,47.08252
2018-09-24T09:49:04.154Z,46.374512
2018-09-24T09:50:04.149Z,46.533203
2018-09-24T09:51:04.258Z,46.429443
2018-09-24T09:52:04.292Z,46.710205
2018-09-24T09:53:04.385Z,46.612549
2018-09-24T09:54:04.486Z,46.289062
2018-09-24T09:55:04.535Z,45.782471
2018-09-24T09:56:04.632Z,46.411133
2018-09-24T09:57:04.686Z,46.228027
2018-09-24T09:58:04.846Z,46.331787
2018-09-24T09:59:04.975Z,46.429443
2018-09-24T10:00:05.061Z,46.759033
2018-09-24T10:01:05.231Z,47.186279
2018-09-24T10:02:05.200Z,47.186279
2018-09-24T10:03:05.340Z,46.97876
2018-09-24T10:04:05.440Z,47.08252
2018-09-24T10:05:05.441Z,46.417236
2018-09-24T10:06:05.558Z,46.948242
2018-09-24T10:07:05.725Z,46.722412
2018-09-24T10:08:05.683Z,46.398926
2018-09-24T10:09:05.731Z,45.568848
2018-09-24T10:10:05.733Z,45.343018
2018-09-24T10:11:05.928Z,45.446777
2018-09-24T10:12:05.929Z,44.836426
2018-09-24T10:13:05.985Z,44.818115
2018-09-24T10:14:06.092Z,44.110107
2018-09-24T10:15:06.194Z,44.311523
2018-09-24T10:16:06.189Z,44.110107
2018-09-24T10:17:06.357Z,44.415283
2018-09-24T10:18:06.486Z,44.390869
2018-09-24T10:19:06.475Z,44.390869
2018-09-24T10:20:06.582Z,45.098877
2018-09-24T10:21:06.721Z,44.189453
2018-09-24T10:22:06.887Z,44.311523
2018-09-24T10:23:06.832Z,44.897461
2018-09-24T10:24:06.992Z,45.098877
2018-09-24T10:25:07.114Z,44.390869
2018-09-24T10:26:07.258Z,44.293213
2018-09-24T10:27:07.261Z,44.390869
2018-09-24T10:28:07.308Z,44.293213
2018-09-24T10:29:07.411Z,43.786621
2018-09-24T10:30:07.531Z,43.688965
2018-09-24T10:31:07.586Z,44.091797
2018-09-24T10:32:07.599Z,43.786621
2018-09-24T10:33:07.609Z,43.322754
2018-09-24T10:34:07.679Z,43.017578
2018-09-24T10:35:07.764Z,43.548584
2018-09-24T10:36:07.874Z,44.128418
2018-09-24T10:37:07.969Z,44.335938
2018-09-24T10:38:08.042Z,44.616699
2018-09-24T10:39:08.073Z,44.415283
2018-09-24T10:40:08.120Z,45.037842
2018-09-24T10:41:08.286Z,44.836426
2018-09-24T10:42:08.389Z,44.537354
2018-09-24T10:43:08.370Z,44.335938
2018-09-24T10:44:08.314Z,43.829346
2018-09-24T10:45:08.347Z,43.52417
2018-09-24T10:46:08.382Z,43.725586
2018-09-24T10:47:08.489Z,43.725586
2018-09-24T10:48:08.545Z,44.335938
2018-09-24T10:49:08.769Z,45.343018
2018-09-24T10:50:08.745Z,44.73877
2018-09-24T10:51:08.835Z,44.030762
2018-09-24T10:52:08.967Z,44.433594
2018-09-24T10:53:09.139Z,45.019531
2018-09-24T10:54:09.213Z,44.415283
2018-09-24T10:55:09.296Z,43.365479
2018-09-24T10:56:09.421Z,42.755127
2018-09-24T10:57:09.598Z,42.840576
2018-09-24T10:58:09.655Z,42.333984
2018-09-24T10:59:09.770Z,42.034912
2018-09-24T11:00:09.771Z,42.315674
2018-09-24T11:01:09.935Z,42.114258
2018-09-24T11:02:09.937Z,41.931152
2018-09-24T11:03:09.962Z,42.236328
2018-09-24T11:04:10.147Z,41.28418
2018-09-24T11:05:10.102Z,42.797852
2018-09-24T11:06:10.145Z,43.707275
2018-09-24T11:07:10.214Z,42.492676
2018-09-24T11:08:10.318Z,42.053223
2018-09-24T11:09:10.297Z,43.286133
2018-09-24T11:10:10.479Z,42.169189
2018-09-24T11:11:10.410Z,42.578125
2018-09-24T11:12:10.523Z,42.150879
2018-09-24T11:13:10.582Z,42.755127
2018-09-24T11:14:10.691Z,43.041992
2018-09-24T11:15:10.797Z,43.548584
2018-09-24T11:16:11.033Z,44.128418
2018-09-24T11:17:11.346Z,43.927002
2018-09-24T11:18:11.318Z,41.906738
2018-09-24T11:19:11.385Z,42.736816
2018-09-24T11:20:11.656Z,42.840576
2018-09-24T11:21:11.612Z,42.614746
2018-09-24T11:22:11.631Z,42.089844
2018-09-24T11:23:11.812Z,41.766357
2018-09-24T11:24:12.877Z,41.650391
2018-09-24T11:25:11.903Z,41.949463
2018-09-24T11:26:11.938Z,41.125488
2018-09-24T11:27:13.059Z,40.820312
2018-09-24T11:28:12.185Z,40.50293
2018-09-24T11:29:12.164Z,39.276123
2018-09-24T11:30:12.323Z,39.49585
2018-09-24T11:31:12.411Z,39.477539
2018-09-24T11:32:12.333Z,39.776611
2018-09-24T11:33:12.413Z,38.671875
2018-09-24T11:34:12.524Z,39.477539
2018-09-24T11:35:12.622Z,38.891602
2018-09-24T11:36:12.779Z,37.261963
2018-09-24T11:37:12.845Z,38.165283
2018-09-24T11:38:12.937Z,38.653564
2018-09-24T11:39:13.103Z,38.970947
2018-09-24T11:40:13.233Z,39.190674
2018-09-24T11:41:13.279Z,39.49585
2018-09-24T11:42:13.356Z,39.697266
2018-09-24T11:43:13.480Z,39.898682
2018-09-24T11:44:13.615Z,40.704346
2018-09-24T11:45:13.813Z,41.223145
2018-09-24T11:46:13.780Z,41.827393
2018-09-24T11:47:13.936Z,42.5354
2018-09-24T11:48:13.919Z,40.014648
2018-09-24T11:49:13.950Z,39.532471
2018-09-24T11:50:13.967Z,39.831543
2018-09-24T11:51:14.115Z,39.831543
2018-09-24T11:52:14.316Z,39.025879
2018-09-24T11:53:14.324Z,39.129639
2018-09-24T11:54:14.333Z,40.05127